createdAt,value
2018-12-26T00:00:13.252Z,3.80
2018-12-26T00:02:42.217Z,3.67
2018-12-26T00:05:10.666Z,3.57
2018-12-26T00:07:39.114Z,4.50
2018-12-26T00:10:08.036Z,4.87
2018-12-26T00:12:36.486Z,4.60
2018-12-26T00:15:06.173Z,3.40
2018-12-26T00:17:37.276Z,4.47
2018-12-26T00:20:05.995Z,3.80
2018-12-26T00:22:34.605Z,3.77
2018-12-26T00:25:03.166Z,3.93
2018-12-26T00:27:31.658Z,3.60
2018-12-26T00:30:00.115Z,4.90
2018-12-26T00:32:28.666Z,3.43
2018-12-26T00:34:57.190Z,3.67
2018-12-26T00:37:25.640Z,3.67
2018-12-26T00:39:54.258Z,3.90
2018-12-26T00:42:23.029Z,4.13
2018-12-26T00:44:51.620Z,3.80
2018-12-26T00:47:20.218Z,3.87
2018-12-26T00:49:48.669Z,4.20
2018-12-26T00:52:19.585Z,4.30
2018-12-26T00:54:48.140Z,3.87
2018-12-26T00:57:16.593Z,4.37
2018-12-26T00:59:45.121Z,4.50
2018-12-26T01:02:13.748Z,4.50
2018-12-26T01:04:42.196Z,5.00
2018-12-26T01:07:10.638Z,4.13
2018-12-26T01:09:39.190Z,3.90
2018-12-26T01:12:07.638Z,4.40
2018-12-26T01:14:36.097Z,4.37
2018-12-26T01:17:04.826Z,4.53
2018-12-26T01:19:33.281Z,4.60
2018-12-26T01:22:01.798Z,4.10
2018-12-26T01:24:30.266Z,4.10
2018-12-26T01:26:58.713Z,3.67
2018-12-26T01:29:27.263Z,4.37
2018-12-26T01:31:55.729Z,4.30
2018-12-26T01:34:24.366Z,4.13
2018-12-26T01:36:52.810Z,4.10
2018-12-26T01:39:21.361Z,4.70
2018-12-26T01:41:49.845Z,4.10
2018-12-26T01:44:18.293Z,4.13
2018-12-26T01:46:48.415Z,3.63
2018-12-26T01:49:16.863Z,4.10
2018-12-26T01:51:45.382Z,4.97
2018-12-26T01:54:15.500Z,3.57
2018-12-26T01:56:43.949Z,3.43
2018-12-26T01:59:12.397Z,4.10
2018-12-26T02:01:40.950Z,4.33
2018-12-26T02:04:09.469Z,3.97
2018-12-26T02:06:38.193Z,5.47
2018-12-26T02:09:07.714Z,6.70
2018-12-26T02:11:36.157Z,5.90
2018-12-26T02:14:04.745Z,4.17
2018-12-26T02:16:33.289Z,3.83
2018-12-26T02:19:01.741Z,3.47
2018-12-26T02:21:30.185Z,3.93
2018-12-26T02:23:58.725Z,3.37
2018-12-26T02:26:27.177Z,3.50
2018-12-26T02:28:55.632Z,3.33
2018-12-26T02:31:24.124Z,3.80
2018-12-26T02:33:52.574Z,3.00
2018-12-26T02:36:21.167Z,3.63
2018-12-26T02:38:49.714Z,3.67
2018-12-26T02:41:18.166Z,3.40
2018-12-26T02:43:46.611Z,3.97
2018-12-26T02:46:15.089Z,3.37
2018-12-26T02:48:43.536Z,3.83
2018-12-26T02:51:12.061Z,2.87
2018-12-26T02:53:40.606Z,3.20
2018-12-26T02:56:09.125Z,3.60
2018-12-26T02:58:37.681Z,3.17
2018-12-26T03:01:06.306Z,3.23
2018-12-26T03:03:34.821Z,4.13
2018-12-26T03:06:03.436Z,3.50
2018-12-26T03:08:31.982Z,3.60
2018-12-26T03:11:00.500Z,3.20
2018-12-26T03:13:29.021Z,3.40
2018-12-26T03:15:57.502Z,3.13
2018-12-26T03:18:26.037Z,3.73
2018-12-26T03:20:54.497Z,3.50
2018-12-26T03:23:23.034Z,3.10
2018-12-26T03:25:51.653Z,3.27
2018-12-26T03:28:20.099Z,3.43
2018-12-26T03:30:48.570Z,3.63
2018-12-26T03:33:17.087Z,3.37
2018-12-26T03:35:45.673Z,3.30
2018-12-26T03:38:14.300Z,3.67
2018-12-26T03:40:42.958Z,3.53
2018-12-26T03:43:11.477Z,3.13
2018-12-26T03:45:40.022Z,3.77
2018-12-26T03:48:08.833Z,2.90
2018-12-26T03:50:37.418Z,3.27
2018-12-26T03:53:05.960Z,3.83
2018-12-26T03:55:34.557Z,3.30
2018-12-26T03:58:02.996Z,3.40
2018-12-26T04:00:31.744Z,3.20
2018-12-26T04:03:00.258Z,3.37
2018-12-26T04:05:29.350Z,3.33
2018-12-26T04:07:57.818Z,3.47
2018-12-26T04:10:26.702Z,3.23
2018-12-26T04:12:55.285Z,3.30
2018-12-26T04:15:23.835Z,3.63
2018-12-26T04:17:52.421Z,3.30
2018-12-26T04:20:21.032Z,3.97
2018-12-26T04:22:50.129Z,3.43
2018-12-26T04:25:18.786Z,3.80
2018-12-26T04:27:47.382Z,3.10
2018-12-26T04:30:15.989Z,3.53
2018-12-26T04:32:44.613Z,3.47
2018-12-26T04:35:13.067Z,3.87
2018-12-26T04:37:41.560Z,3.40
2018-12-26T04:40:10.016Z,3.13
2018-12-26T04:42:38.463Z,3.00
2018-12-26T04:45:07.147Z,2.90
2018-12-26T04:47:35.589Z,2.60
2018-12-26T04:50:04.883Z,3.10
2018-12-26T04:52:33.362Z,3.10
2018-12-26T04:55:01.821Z,3.20
2018-12-26T04:57:30.729Z,3.00
2018-12-26T04:59:59.218Z,2.70
2018-12-26T05:02:27.988Z,2.73
2018-12-26T05:04:56.513Z,3.07
2018-12-26T05:07:25.242Z,3.13
2018-12-26T05:09:53.689Z,2.80
2018-12-26T05:12:22.283Z,2.53
2018-12-26T05:14:51.293Z,2.80
2018-12-26T05:17:19.812Z,2.97
2018-12-26T05:19:48.399Z,2.83
2018-12-26T05:22:16.941Z,3.20
2018-12-26T05:24:46.626Z,3.50
2018-12-26T05:27:15.146Z,2.90
2018-12-26T05:29:43.613Z,3.10
2018-12-26T05:32:12.053Z,2.90
2018-12-26T05:34:40.573Z,3.33
2018-12-26T05:37:09.041Z,3.27
2018-12-26T05:39:37.625Z,2.83
2018-12-26T05:42:06.141Z,2.47
2018-12-26T05:44:34.624Z,2.77
2018-12-26T05:47:03.064Z,3.03
2018-12-26T05:49:31.513Z,3.10
2018-12-26T05:51:59.993Z,2.97
2018-12-26T05:54:28.445Z,2.90
2018-12-26T05:56:56.889Z,2.77
2018-12-26T05:59:25.368Z,2.57
2018-12-26T06:01:53.817Z,2.80
2018-12-26T06:04:22.270Z,2.90
2018-12-26T06:06:50.729Z,2.87
2018-12-26T06:09:19.174Z,2.70
2018-12-26T06:11:47.631Z,2.50
2018-12-26T06:14:16.174Z,2.70
2018-12-26T06:16:44.618Z,2.87
2018-12-26T06:19:13.066Z,2.80
2018-12-26T06:21:41.597Z,3.20
2018-12-26T06:24:10.050Z,2.63
2018-12-26T06:26:38.509Z,3.13
2018-12-26T06:29:07.266Z,3.13
2018-12-26T06:31:35.713Z,2.83
2018-12-26T06:34:04.163Z,3.00
2018-12-26T06:36:32.645Z,2.97
2018-12-26T06:39:01.089Z,3.37
2018-12-26T06:41:29.547Z,3.03
2018-12-26T06:43:58.020Z,3.07
2018-12-26T06:46:26.467Z,3.43
2018-12-26T06:48:54.909Z,2.93
2018-12-26T06:51:23.382Z,2.90
2018-12-26T06:53:51.825Z,3.17
2018-12-26T06:56:20.277Z,2.80
2018-12-26T06:58:48.749Z,3.10
2018-12-26T07:01:17.191Z,2.73
2018-12-26T07:03:45.638Z,2.43
2018-12-26T07:06:33.529Z,3.83
2018-12-26T07:09:01.972Z,4.27
2018-12-26T07:11:30.421Z,3.17
2018-12-26T07:13:58.897Z,2.63
2018-12-26T07:16:27.344Z,2.70
2018-12-26T07:18:55.794Z,2.53
2018-12-26T07:21:24.262Z,3.20
2018-12-26T07:23:52.710Z,2.70
2018-12-26T07:26:21.592Z,2.80
2018-12-26T07:28:50.073Z,3.00
2018-12-26T07:31:18.522Z,2.80
2018-12-26T07:33:47.045Z,3.40
2018-12-26T07:36:15.543Z,3.20
2018-12-26T07:38:44.057Z,3.20
2018-12-26T07:41:12.587Z,3.17
2018-12-26T07:43:41.077Z,2.60
2018-12-26T07:46:09.594Z,2.80
2018-12-26T07:48:38.041Z,2.87
2018-12-26T07:51:06.524Z,3.57
2018-12-26T07:53:34.969Z,3.23
2018-12-26T07:56:03.418Z,3.00
2018-12-26T07:58:31.893Z,3.10
2018-12-26T08:01:00.344Z,2.93
2018-12-26T08:03:28.977Z,3.00
2018-12-26T08:05:57.457Z,3.50
2018-12-26T08:08:25.909Z,3.37
2018-12-26T08:10:54.381Z,3.63
2018-12-26T08:13:22.933Z,3.70
2018-12-26T08:15:51.381Z,3.63
2018-12-26T08:18:19.829Z,3.67
2018-12-26T08:20:48.303Z,3.53
2018-12-26T08:23:16.755Z,3.43
2018-12-26T08:25:45.193Z,3.07
2018-12-26T08:28:13.669Z,3.87
2018-12-26T08:30:42.190Z,3.80
2018-12-26T08:33:10.638Z,3.43
2018-12-26T08:35:39.185Z,4.23
2018-12-26T08:38:07.633Z,3.63
2018-12-26T08:40:36.074Z,3.20
2018-12-26T08:43:04.552Z,4.00
2018-12-26T08:45:33.002Z,4.43
2018-12-26T08:48:01.518Z,4.17
2018-12-26T08:50:29.997Z,3.57
2018-12-26T08:52:58.442Z,3.93
2018-12-26T08:55:26.885Z,4.00
2018-12-26T08:57:55.489Z,4.73
2018-12-26T09:00:23.937Z,4.13
2018-12-26T09:02:52.385Z,4.10
2018-12-26T09:05:21.237Z,4.17
2018-12-26T09:07:49.766Z,3.93
2018-12-26T09:10:18.209Z,4.20
2018-12-26T09:12:46.701Z,4.10
2018-12-26T09:15:15.150Z,4.00
2018-12-26T09:17:43.729Z,3.90
2018-12-26T09:20:12.232Z,4.10
2018-12-26T09:22:40.677Z,4.27
2018-12-26T09:25:09.146Z,4.30
2018-12-26T09:27:37.990Z,4.23
2018-12-26T09:30:08.378Z,4.60
2018-12-26T09:32:36.889Z,4.40
2018-12-26T09:35:08.207Z,3.90
2018-12-26T09:37:36.654Z,4.13
2018-12-26T09:40:08.045Z,4.10
2018-12-26T09:42:36.546Z,5.43
2018-12-26T09:45:07.638Z,4.80
2018-12-26T09:47:36.157Z,4.40
2018-12-26T09:50:05.571Z,4.50
2018-12-26T09:52:34.068Z,4.70
2018-12-26T09:55:02.570Z,4.40
2018-12-26T09:57:31.060Z,4.73
2018-12-26T09:59:59.507Z,4.40
2018-12-26T10:02:27.961Z,5.17
2018-12-26T10:04:56.589Z,4.90
2018-12-26T10:07:25.037Z,5.33
2018-12-26T10:09:53.566Z,5.20
2018-12-26T10:12:22.518Z,5.53
2018-12-26T10:14:50.966Z,5.30
2018-12-26T10:17:19.465Z,5.30
2018-12-26T10:19:50.184Z,5.30
2018-12-26T10:22:18.301Z,5.60
2018-12-26T10:24:46.738Z,5.67
2018-12-26T10:27:15.210Z,5.13
2018-12-26T10:29:43.666Z,6.13
2018-12-26T10:32:12.113Z,6.10
2018-12-26T10:34:40.581Z,6.17
2018-12-26T10:37:09.029Z,7.30
2018-12-26T10:39:37.487Z,9.50
2018-12-26T10:42:06.186Z,8.20
2018-12-26T10:44:34.635Z,7.40
2018-12-26T10:47:03.165Z,6.43
2018-12-26T10:49:31.714Z,6.60
2018-12-26T10:52:00.232Z,7.40
2018-12-26T10:54:28.745Z,7.43
2018-12-26T10:56:57.310Z,8.50
2018-12-26T10:59:26.097Z,8.27
2018-12-26T11:01:54.553Z,9.17
2018-12-26T11:04:23.057Z,8.87
2018-12-26T11:06:51.658Z,8.93
2018-12-26T11:09:20.138Z,9.50
2018-12-26T11:11:48.609Z,8.63
2018-12-26T11:14:17.063Z,10.40
2018-12-26T11:16:45.652Z,8.50
2018-12-26T11:19:14.194Z,8.07
2018-12-26T11:21:43.562Z,8.17
2018-12-26T11:24:12.009Z,8.50
2018-12-26T11:26:40.492Z,7.70
2018-12-26T11:29:08.956Z,7.60
2018-12-26T11:31:37.398Z,7.40
2018-12-26T11:34:05.953Z,8.13
2018-12-26T11:36:34.405Z,6.17
2018-12-26T11:39:04.700Z,6.67
2018-12-26T11:41:33.303Z,6.87
2018-12-26T11:44:01.821Z,7.63
2018-12-26T11:46:30.273Z,8.10
2018-12-26T11:48:58.762Z,7.50
2018-12-26T11:51:27.233Z,7.77
2018-12-26T11:53:55.689Z,6.60
2018-12-26T11:56:24.167Z,7.17
2018-12-26T11:58:52.755Z,6.90
2018-12-26T12:01:21.339Z,7.33
2018-12-26T12:03:49.881Z,7.60
2018-12-26T12:06:18.400Z,8.63
2018-12-26T12:08:46.922Z,7.93
2018-12-26T12:11:15.428Z,8.07
2018-12-26T12:13:44.023Z,8.53
2018-12-26T12:16:12.543Z,9.10
2018-12-26T12:18:41.162Z,8.67
2018-12-26T12:21:09.694Z,10.00
2018-12-26T12:23:38.142Z,10.00
2018-12-26T12:26:06.780Z,13.90
2018-12-26T12:28:35.403Z,14.27
2018-12-26T12:31:04.050Z,10.17
2018-12-26T12:33:32.545Z,11.30
2018-12-26T12:36:01.332Z,9.87
2018-12-26T12:38:29.935Z,10.03
2018-12-26T12:40:58.621Z,10.20
2018-12-26T12:43:27.222Z,10.63
2018-12-26T12:45:55.751Z,10.70
2018-12-26T12:48:24.315Z,11.07
2018-12-26T12:50:52.785Z,14.03
2018-12-26T12:53:21.238Z,17.70
2018-12-26T12:55:49.860Z,9.87
2018-12-26T12:58:18.441Z,9.70
2018-12-26T13:00:47.202Z,9.80
2018-12-26T13:03:15.754Z,9.90
2018-12-26T13:05:44.523Z,9.60
2018-12-26T13:08:13.322Z,9.27
2018-12-26T13:10:41.945Z,9.13
2018-12-26T13:13:10.543Z,9.07
2018-12-26T13:15:39.125Z,8.83
2018-12-26T13:18:07.614Z,10.00
2018-12-26T13:20:36.158Z,11.00
2018-12-26T13:23:04.678Z,10.53
2018-12-26T13:25:33.497Z,8.90
2018-12-26T13:28:02.037Z,9.80
2018-12-26T13:30:30.482Z,9.83
2018-12-26T13:32:58.957Z,9.60
2018-12-26T13:35:27.420Z,9.30
2018-12-26T13:37:55.942Z,9.30
2018-12-26T13:40:24.507Z,10.33
2018-12-26T13:42:52.957Z,9.90
2018-12-26T13:45:21.483Z,13.07
2018-12-26T13:47:49.986Z,11.30
2018-12-26T13:50:18.440Z,11.63
2018-12-26T13:52:46.980Z,10.40
2018-12-26T13:55:15.479Z,12.53
2018-12-26T13:57:44.010Z,11.90
2018-12-26T14:00:12.549Z,11.47
2018-12-26T14:02:41.052Z,11.30
2018-12-26T14:05:09.511Z,11.70
2018-12-26T14:07:37.966Z,11.63
2018-12-26T14:10:09.290Z,12.17
2018-12-26T14:12:37.814Z,11.17
2018-12-26T14:15:08.810Z,11.57
2018-12-26T14:17:37.297Z,11.50
2018-12-26T14:20:07.385Z,11.17
2018-12-26T14:22:35.912Z,10.40
2018-12-26T14:25:05.700Z,11.43
2018-12-26T14:27:34.251Z,17.77
2018-12-26T14:30:10.912Z,27.13
2018-12-26T14:32:33.058Z,33.93
2018-12-26T14:35:01.520Z,27.67
2018-12-26T14:37:30.124Z,15.30
2018-12-26T14:39:58.613Z,17.80
2018-12-26T14:42:27.133Z,23.40
2018-12-26T14:44:55.599Z,16.90
2018-12-26T14:47:24.162Z,17.07
2018-12-26T14:49:52.616Z,18.07
2018-12-26T14:52:21.153Z,15.73
2018-12-26T14:54:49.785Z,17.00
2018-12-26T14:57:18.339Z,15.47
2018-12-26T14:59:46.938Z,14.87
2018-12-26T15:02:15.548Z,14.80
2018-12-26T15:04:44.143Z,12.37
2018-12-26T15:07:12.616Z,12.70
2018-12-26T15:09:42.702Z,13.27
2018-12-26T15:12:11.230Z,11.37
2018-12-26T15:14:39.681Z,10.47
2018-12-26T15:17:08.179Z,10.77
2018-12-26T15:19:36.907Z,9.20
2018-12-26T15:22:05.434Z,11.20
2018-12-26T15:24:33.992Z,11.07
2018-12-26T15:27:02.530Z,10.43
2018-12-26T15:29:31.070Z,11.60
2018-12-26T15:31:59.633Z,12.80
2018-12-26T15:34:28.223Z,10.40
2018-12-26T15:36:56.817Z,9.70
2018-12-26T15:39:25.446Z,10.10
2018-12-26T15:41:53.900Z,11.73
2018-12-26T15:44:22.354Z,11.73
2018-12-26T15:46:50.837Z,12.60
2018-12-26T15:49:19.545Z,13.77
2018-12-26T15:51:48.138Z,13.10
2018-12-26T15:54:16.757Z,9.93
2018-12-26T15:56:45.353Z,9.97
2018-12-26T15:59:13.925Z,9.27
2018-12-26T16:01:42.405Z,14.17
2018-12-26T16:04:10.945Z,9.70
2018-12-26T16:06:39.457Z,8.17
2018-12-26T16:09:09.132Z,7.87
2018-12-26T16:11:37.733Z,9.03
2018-12-26T16:14:06.249Z,8.63
2018-12-26T16:16:34.749Z,9.27
2018-12-26T16:19:03.273Z,8.37
2018-12-26T16:21:31.737Z,7.10
2018-12-26T16:24:00.217Z,7.50
2018-12-26T16:26:28.670Z,7.00
2018-12-26T16:28:57.117Z,6.40
2018-12-26T16:31:25.672Z,6.47
2018-12-26T16:33:54.126Z,6.33
2018-12-26T16:36:22.658Z,6.20
2018-12-26T16:38:51.201Z,5.87
2018-12-26T16:41:19.669Z,7.57
2018-12-26T16:43:48.117Z,6.83
2018-12-26T16:46:16.747Z,7.73
2018-12-26T16:48:45.347Z,7.20
2018-12-26T16:51:13.930Z,6.13
2018-12-26T16:53:42.490Z,7.20
2018-12-26T16:56:10.944Z,7.23
2018-12-26T16:58:39.738Z,6.87
2018-12-26T17:01:08.290Z,6.67
2018-12-26T17:03:36.761Z,7.90
2018-12-26T17:06:05.279Z,5.93
2018-12-26T17:08:33.889Z,8.10
2018-12-26T17:11:02.423Z,5.33
2018-12-26T17:13:30.870Z,5.53
2018-12-26T17:15:59.496Z,5.37
2018-12-26T17:18:27.946Z,4.67
2018-12-26T17:20:56.397Z,6.73
2018-12-26T17:23:24.973Z,8.37
2018-12-26T17:25:53.503Z,4.63
2018-12-26T17:28:22.116Z,5.17
2018-12-26T17:30:50.665Z,5.77
2018-12-26T17:33:19.131Z,8.27
2018-12-26T17:35:47.744Z,7.53
2018-12-26T17:38:16.629Z,6.73
2018-12-26T17:40:45.208Z,6.43
2018-12-26T17:43:13.657Z,6.00
2018-12-26T17:45:42.186Z,6.87
2018-12-26T17:48:10.660Z,5.33
2018-12-26T17:50:47.741Z,5.23
2018-12-26T17:53:28.127Z,6.00
2018-12-26T17:56:22.076Z,6.80
2018-12-26T17:58:59.602Z,6.03
2018-12-26T18:01:37.197Z,5.63
2018-12-26T18:04:05.842Z,8.77
2018-12-26T18:06:34.542Z,6.33
2018-12-26T18:09:03.089Z,7.80
2018-12-26T18:11:31.613Z,11.07
2018-12-26T18:14:00.138Z,5.57
2018-12-26T18:16:28.630Z,7.80
2018-12-26T18:18:57.218Z,13.37
2018-12-26T18:21:25.752Z,8.93
2018-12-26T18:23:54.371Z,8.03
2018-12-26T18:26:22.898Z,10.57
2018-12-26T18:28:51.350Z,6.23
2018-12-26T18:31:21.903Z,7.43
2018-12-26T18:33:50.125Z,6.60
2018-12-26T18:36:18.709Z,7.30
2018-12-26T18:38:47.186Z,6.07
2018-12-26T18:41:15.636Z,6.30
2018-12-26T18:43:44.226Z,6.20
2018-12-26T18:46:12.769Z,4.87
2018-12-26T18:48:41.353Z,6.63
2018-12-26T18:51:09.799Z,7.77
2018-12-26T18:53:38.297Z,9.07
2018-12-26T18:56:06.873Z,8.53
2018-12-26T18:58:35.318Z,9.03
2018-12-26T19:01:03.933Z,9.67
2018-12-26T19:03:32.381Z,10.43
2018-12-26T19:06:00.909Z,12.97
2018-12-26T19:08:29.607Z,12.53
2018-12-26T19:10:58.121Z,15.67
2018-12-26T19:13:26.582Z,16.23
2018-12-26T19:15:55.194Z,17.83
2018-12-26T19:18:23.893Z,19.30
2018-12-26T19:20:52.478Z,20.80
2018-12-26T19:23:20.957Z,23.80
2018-12-26T19:25:49.439Z,22.87
2018-12-26T19:28:17.957Z,54.90
2018-12-26T19:30:46.429Z,18.57
2018-12-26T19:33:14.878Z,20.30
2018-12-26T19:35:43.397Z,19.13
2018-12-26T19:38:11.878Z,18.83
2018-12-26T19:40:40.332Z,30.13
2018-12-26T19:43:08.861Z,13.60
2018-12-26T19:45:37.347Z,12.93
2018-12-26T19:48:05.869Z,12.40
2018-12-26T19:50:34.321Z,10.87
2018-12-26T19:53:02.871Z,10.57
2018-12-26T19:55:31.353Z,10.37
2018-12-26T19:57:59.853Z,10.73
2018-12-26T20:00:28.401Z,11.00
2018-12-26T20:02:56.929Z,10.30
2018-12-26T20:05:25.375Z,10.10
2018-12-26T20:07:54.113Z,11.20
2018-12-26T20:10:22.619Z,11.40
2018-12-26T20:12:51.185Z,12.97
2018-12-26T20:15:19.850Z,12.93
2018-12-26T20:17:48.367Z,11.97
2018-12-26T20:20:16.899Z,12.20
2018-12-26T20:22:45.444Z,13.40
2018-12-26T20:25:13.897Z,13.53
2018-12-26T20:27:42.350Z,13.03
2018-12-26T20:30:11.057Z,12.50
2018-12-26T20:32:39.519Z,11.67
2018-12-26T20:35:08.118Z,40.27
2018-12-26T20:37:36.679Z,24.30
2018-12-26T20:40:06.461Z,16.07
2018-12-26T20:42:34.950Z,12.37
2018-12-26T20:45:03.510Z,12.53
2018-12-26T20:47:32.007Z,14.17
2018-12-26T20:50:00.454Z,14.10
2018-12-26T20:52:28.937Z,13.83
2018-12-26T20:54:57.390Z,12.90
2018-12-26T20:57:25.841Z,14.07
2018-12-26T20:59:54.333Z,13.50
2018-12-26T21:02:22.853Z,11.97
2018-12-26T21:04:51.308Z,12.80
2018-12-26T21:07:19.789Z,11.83
2018-12-26T21:09:48.379Z,10.83
2018-12-26T21:12:16.825Z,12.33
2018-12-26T21:14:45.308Z,14.13
2018-12-26T21:17:13.797Z,12.13
2018-12-26T21:19:42.326Z,14.43
2018-12-26T21:22:10.866Z,14.40
2018-12-26T21:24:39.387Z,13.83
2018-12-26T21:27:07.913Z,13.30
2018-12-26T21:29:36.393Z,12.90
2018-12-26T21:32:13.903Z,13.63
2018-12-26T21:34:35.782Z,14.17
2018-12-26T21:37:04.269Z,14.27
2018-12-26T21:39:32.857Z,13.03
2018-12-26T21:42:01.315Z,14.30
2018-12-26T21:44:29.803Z,15.23
2018-12-26T21:46:58.318Z,14.53
2018-12-26T21:49:26.881Z,13.50
2018-12-26T21:51:55.416Z,13.00
2018-12-26T21:54:23.869Z,15.40
2018-12-26T21:56:52.457Z,20.60
2018-12-26T21:59:20.952Z,20.87
2018-12-26T22:01:49.473Z,15.57
2018-12-26T22:04:17.985Z,14.47
2018-12-26T22:06:46.469Z,14.67
2018-12-26T22:09:14.921Z,16.33
2018-12-26T22:11:43.465Z,18.63
2018-12-26T22:14:11.950Z,17.30
2018-12-26T22:16:40.401Z,16.33
2018-12-26T22:19:08.853Z,17.47
2018-12-26T22:21:37.421Z,19.20
2018-12-26T22:24:05.932Z,19.10
2018-12-26T22:26:34.388Z,15.00
2018-12-26T22:29:02.860Z,17.77
2018-12-26T22:31:31.314Z,19.67
2018-12-26T22:33:59.901Z,12.67
2018-12-26T22:36:28.391Z,10.90
2018-12-26T22:38:56.925Z,11.43
2018-12-26T22:41:25.377Z,10.93
2018-12-26T22:43:53.861Z,11.00
2018-12-26T22:46:22.381Z,12.57
2018-12-26T22:48:50.906Z,13.73
2018-12-26T22:51:19.368Z,13.40
2018-12-26T22:53:47.884Z,12.33
2018-12-26T22:56:16.338Z,13.17
2018-12-26T22:58:44.819Z,11.93
2018-12-26T23:01:13.658Z,12.30
2018-12-26T23:03:42.114Z,11.50
2018-12-26T23:06:10.601Z,12.63
2018-12-26T23:08:39.101Z,11.60
2018-12-26T23:11:07.694Z,11.90
2018-12-26T23:13:36.244Z,12.87
2018-12-26T23:16:04.761Z,13.17
2018-12-26T23:18:33.295Z,13.00
2018-12-26T23:21:01.853Z,13.43
2018-12-26T23:23:30.301Z,14.70
2018-12-26T23:25:58.753Z,13.73
2018-12-26T23:28:27.304Z,14.07
2018-12-26T23:30:55.745Z,14.17
2018-12-26T23:33:24.197Z,14.37
2018-12-26T23:35:52.824Z,14.30
2018-12-26T23:38:21.341Z,15.00
2018-12-26T23:40:49.790Z,14.70
2018-12-26T23:43:18.356Z,14.90
2018-12-26T23:45:46.813Z,14.23
2018-12-26T23:48:15.266Z,15.33
2018-12-26T23:50:43.808Z,15.47
2018-12-26T23:53:12.329Z,15.93
2018-12-26T23:55:40.777Z,15.07
2018-12-26T23:58:09.306Z,15.87
